sensor_id;sensor_type;location;lat;lon;timestamp;P1;durP1;ratioP1;P2;durP2;ratioP2
11086;SDS011;5597;47.588;9.642;2023-11-19T00:02:11;1.00;;;0.90;;
11086;SDS011;5597;47.588;9.642;2023-11-19T00:04:37;0.70;;;0.70;;
11086;SDS011;5597;47.588;9.642;2023-11-19T00:07:06;1.93;;;0.60;;
11086;SDS011;5597;47.588;9.642;2023-11-19T00:09:33;0.80;;;0.70;;
11086;SDS011;5597;47.588;9.642;2023-11-19T00:11:59;0.83;;;0.60;;
11086;SDS011;5597;47.588;9.642;2023-11-19T00:14:25;0.60;;;0.60;;
11086;SDS011;5597;47.588;9.642;2023-11-19T00:16:51;0.63;;;0.63;;
11086;SDS011;5597;47.588;9.642;2023-11-19T00:19:17;0.80;;;0.70;;
11086;SDS011;5597;47.588;9.642;2023-11-19T00:21:42;0.90;;;0.70;;
11086;SDS011;5597;47.588;9.642;2023-11-19T00:24:08;0.83;;;0.70;;
11086;SDS011;5597;47.588;9.642;2023-11-19T00:26:34;1.13;;;0.77;;
11086;SDS011;5597;47.588;9.642;2023-11-19T00:29:00;1.90;;;1.10;;
11086;SDS011;5597;47.588;9.642;2023-11-19T00:31:25;0.80;;;0.70;;
11086;SDS011;5597;47.588;9.642;2023-11-19T00:33:52;1.17;;;0.67;;
11086;SDS011;5597;47.588;9.642;2023-11-19T00:36:18;1.00;;;0.80;;
11086;SDS011;5597;47.588;9.642;2023-11-19T00:38:44;1.43;;;0.90;;
11086;SDS011;5597;47.588;9.642;2023-11-19T00:41:10;0.83;;;0.83;;
11086;SDS011;5597;47.588;9.642;2023-11-19T00:43:35;0.83;;;0.80;;
11086;SDS011;5597;47.588;9.642;2023-11-19T00:46:01;1.13;;;0.80;;
11086;SDS011;5597;47.588;9.642;2023-11-19T00:48:28;1.37;;;0.70;;
11086;SDS011;5597;47.588;9.642;2023-11-19T00:50:53;1.00;;;0.90;;
11086;SDS011;5597;47.588;9.642;2023-11-19T00:53:19;1.00;;;0.90;;
11086;SDS011;5597;47.588;9.642;2023-11-19T00:55:44;0.80;;;0.80;;
11086;SDS011;5597;47.588;9.642;2023-11-19T00:58:10;1.20;;;0.80;;
11086;SDS011;5597;47.588;9.642;2023-11-19T01:00:36;1.17;;;0.97;;
11086;SDS011;5597;47.588;9.642;2023-11-19T01:03:01;1.10;;;0.90;;
11086;SDS011;5597;47.588;9.642;2023-11-19T01:05:27;0.97;;;0.80;;
11086;SDS011;5597;47.588;9.642;2023-11-19T01:07:53;1.00;;;0.90;;
11086;SDS011;5597;47.588;9.642;2023-11-19T01:10:19;1.40;;;1.17;;
11086;SDS011;5597;47.588;9.642;2023-11-19T01:12:45;1.07;;;0.97;;
11086;SDS011;5597;47.588;9.642;2023-11-19T01:15:11;1.13;;;0.90;;
11086;SDS011;5597;47.588;9.642;2023-11-19T01:17:38;1.10;;;0.80;;
11086;SDS011;5597;47.588;9.642;2023-11-19T01:20:04;1.00;;;0.77;;
11086;SDS011;5597;47.588;9.642;2023-11-19T01:22:31;1.13;;;0.87;;
11086;SDS011;5597;47.588;9.642;2023-11-19T01:24:57;0.80;;;0.80;;
11086;SDS011;5597;47.588;9.642;2023-11-19T01:27:23;0.90;;;0.80;;
11086;SDS011;5597;47.588;9.642;2023-11-19T01:29:49;0.80;;;0.80;;
11086;SDS011;5597;47.588;9.642;2023-11-19T01:32:15;1.20;;;0.80;;
11086;SDS011;5597;47.588;9.642;2023-11-19T01:34:41;0.67;;;0.67;;
11086;SDS011;5597;47.588;9.642;2023-11-19T01:37:06;0.73;;;0.70;;
11086;SDS011;5597;47.588;9.642;2023-11-19T01:39:34;0.70;;;0.70;;
11086;SDS011;5597;47.588;9.642;2023-11-19T01:41:59;0.70;;;0.70;;
11086;SDS011;5597;47.588;9.642;2023-11-19T01:44:25;0.70;;;0.70;;
11086;SDS011;5597;47.588;9.642;2023-11-19T01:46:51;0.70;;;0.70;;
11086;SDS011;5597;47.588;9.642;2023-11-19T01:49:17;0.67;;;0.67;;
11086;SDS011;5597;47.588;9.642;2023-11-19T01:51:44;2.10;;;0.80;;
11086;SDS011;5597;47.588;9.642;2023-11-19T01:54:11;0.77;;;0.70;;
11086;SDS011;5597;47.588;9.642;2023-11-19T01:56:38;1.00;;;0.90;;
11086;SDS011;5597;47.588;9.642;2023-11-19T01:59:09;1.03;;;0.93;;
11086;SDS011;5597;47.588;9.642;2023-11-19T02:01:36;1.10;;;0.90;;
11086;SDS011;5597;47.588;9.642;2023-11-19T02:04:04;1.03;;;0.90;;
11086;SDS011;5597;47.588;9.642;2023-11-19T02:06:31;0.80;;;0.80;;
11086;SDS011;5597;47.588;9.642;2023-11-19T02:08:59;0.77;;;0.77;;
11086;SDS011;5597;47.588;9.642;2023-11-19T02:11:25;1.10;;;0.80;;
11086;SDS011;5597;47.588;9.642;2023-11-19T02:13:54;1.53;;;0.80;;
11086;SDS011;5597;47.588;9.642;2023-11-19T02:16:21;1.40;;;0.87;;
11086;SDS011;5597;47.588;9.642;2023-11-19T02:18:46;1.17;;;0.80;;
11086;SDS011;5597;47.588;9.642;2023-11-19T02:21:13;0.70;;;0.70;;
11086;SDS011;5597;47.588;9.642;2023-11-19T02:23:40;0.80;;;0.77;;
11086;SDS011;5597;47.588;9.642;2023-11-19T02:28:35;1.10;;;0.90;;
11086;SDS011;5597;47.588;9.642;2023-11-19T02:31:02;0.80;;;0.80;;
11086;SDS011;5597;47.588;9.642;2023-11-19T02:33:30;1.00;;;0.87;;
11086;SDS011;5597;47.588;9.642;2023-11-19T02:35:55;1.07;;;0.70;;
11086;SDS011;5597;47.588;9.642;2023-11-19T02:38:21;1.00;;;0.83;;
11086;SDS011;5597;47.588;9.642;2023-11-19T02:40:47;0.90;;;0.80;;
11086;SDS011;5597;47.588;9.642;2023-11-19T02:43:14;1.50;;;1.10;;
11086;SDS011;5597;47.588;9.642;2023-11-19T02:45:40;0.83;;;0.70;;
11086;SDS011;5597;47.588;9.642;2023-11-19T02:48:05;0.80;;;0.80;;
11086;SDS011;5597;47.588;9.642;2023-11-19T02:50:31;1.70;;;0.83;;
11086;SDS011;5597;47.588;9.642;2023-11-19T02:52:57;0.70;;;0.70;;
11086;SDS011;5597;47.588;9.642;2023-11-19T02:55:23;0.60;;;0.60;;
11086;SDS011;5597;47.588;9.642;2023-11-19T02:57:49;0.80;;;0.73;;
11086;SDS011;5597;47.588;9.642;2023-11-19T03:00:16;0.80;;;0.70;;
11086;SDS011;5597;47.588;9.642;2023-11-19T03:02:43;0.77;;;0.77;;
11086;SDS011;5597;47.588;9.642;2023-11-19T03:05:13;1.33;;;0.90;;
11086;SDS011;5597;47.588;9.642;2023-11-19T03:07:40;0.90;;;0.70;;
11086;SDS011;5597;47.588;9.642;2023-11-19T03:10:08;1.03;;;0.80;;
11086;SDS011;5597;47.588;9.642;2023-11-19T03:12:34;0.90;;;0.90;;
11086;SDS011;5597;47.588;9.642;2023-11-19T03:15:00;0.83;;;0.70;;
11086;SDS011;5597;47.588;9.642;2023-11-19T03:17:26;0.70;;;0.67;;
11086;SDS011;5597;47.588;9.642;2023-11-19T03:19:51;0.87;;;0.73;;
11086;SDS011;5597;47.588;9.642;2023-11-19T03:22:17;1.40;;;0.97;;
11086;SDS011;5597;47.588;9.642;2023-11-19T03:24:42;1.47;;;1.30;;
11086;SDS011;5597;47.588;9.642;2023-11-19T03:27:08;1.93;;;1.30;;
11086;SDS011;5597;47.588;9.642;2023-11-19T03:29:33;1.70;;;1.20;;
11086;SDS011;5597;47.588;9.642;2023-11-19T03:31:59;1.07;;;0.87;;
11086;SDS011;5597;47.588;9.642;2023-11-19T03:34:24;0.97;;;0.80;;
11086;SDS011;5597;47.588;9.642;2023-11-19T03:36:51;1.10;;;1.00;;
11086;SDS011;5597;47.588;9.642;2023-11-19T03:39:16;0.83;;;0.70;;
11086;SDS011;5597;47.588;9.642;2023-11-19T03:41:42;1.07;;;0.80;;
11086;SDS011;5597;47.588;9.642;2023-11-19T03:44:17;1.33;;;0.97;;
11086;SDS011;5597;47.588;9.642;2023-11-19T03:46:44;1.17;;;0.97;;
11086;SDS011;5597;47.588;9.642;2023-11-19T03:49:09;0.70;;;0.70;;
11086;SDS011;5597;47.588;9.642;2023-11-19T03:51:35;0.67;;;0.67;;
11086;SDS011;5597;47.588;9.642;2023-11-19T03:54:00;0.90;;;0.83;;
11086;SDS011;5597;47.588;9.642;2023-11-19T03:56:26;0.97;;;0.83;;
11086;SDS011;5597;47.588;9.642;2023-11-19T03:58:52;0.90;;;0.73;;
11086;SDS011;5597;47.588;9.642;2023-11-19T04:01:18;0.80;;;0.80;;
11086;SDS011;5597;47.588;9.642;2023-11-19T04:03:43;0.80;;;0.80;;
11086;SDS011;5597;47.588;9.642;2023-11-19T04:06:09;1.17;;;1.00;;
11086;SDS011;5597;47.588;9.642;2023-11-19T04:08:35;1.30;;;0.80;;
11086;SDS011;5597;47.588;9.642;2023-11-19T04:11:01;1.07;;;0.87;;
11086;SDS011;5597;47.588;9.642;2023-11-19T04:13:28;1.60;;;0.83;;
11086;SDS011;5597;47.588;9.642;2023-11-19T04:15:54;0.90;;;0.80;;
11086;SDS011;5597;47.588;9.642;2023-11-19T04:18:19;0.80;;;0.80;;
11086;SDS011;5597;47.588;9.642;2023-11-19T04:20:45;1.30;;;0.90;;
11086;SDS011;5597;47.588;9.642;2023-11-19T04:23:10;1.20;;;0.80;;
11086;SDS011;5597;47.588;9.642;2023-11-19T04:25:36;0.70;;;0.70;;
11086;SDS011;5597;47.588;9.642;2023-11-19T04:28:02;1.10;;;0.80;;
11086;SDS011;5597;47.588;9.642;2023-11-19T04:30:28;0.70;;;0.70;;
11086;SDS011;5597;47.588;9.642;2023-11-19T04:32:53;1.10;;;0.63;;
11086;SDS011;5597;47.588;9.642;2023-11-19T04:35:19;1.10;;;1.00;;
11086;SDS011;5597;47.588;9.642;2023-11-19T04:37:45;1.57;;;0.90;;
11086;SDS011;5597;47.588;9.642;2023-11-19T04:40:10;1.10;;;0.80;;
11086;SDS011;5597;47.588;9.642;2023-11-19T04:42:37;1.83;;;1.00;;
11086;SDS011;5597;47.588;9.642;2023-11-19T04:45:05;0.80;;;0.70;;
11086;SDS011;5597;47.588;9.642;2023-11-19T04:47:31;0.70;;;0.70;;
11086;SDS011;5597;47.588;9.642;2023-11-19T04:50:01;0.60;;;0.60;;
11086;SDS011;5597;47.588;9.642;2023-11-19T04:52:28;1.53;;;0.70;;
11086;SDS011;5597;47.588;9.642;2023-11-19T04:54:53;1.00;;;0.90;;
11086;SDS011;5597;47.588;9.642;2023-11-19T04:57:19;0.83;;;0.70;;
11086;SDS011;5597;47.588;9.642;2023-11-19T04:59:44;0.70;;;0.70;;
11086;SDS011;5597;47.588;9.642;2023-11-19T05:02:10;1.23;;;0.80;;
11086;SDS011;5597;47.588;9.642;2023-11-19T05:04:36;0.70;;;0.70;;
11086;SDS011;5597;47.588;9.642;2023-11-19T05:07:02;0.87;;;0.70;;
11086;SDS011;5597;47.588;9.642;2023-11-19T05:09:28;0.93;;;0.73;;
11086;SDS011;5597;47.588;9.642;2023-11-19T05:11:55;0.80;;;0.80;;
11086;SDS011;5597;47.588;9.642;2023-11-19T05:14:21;1.00;;;0.90;;
11086;SDS011;5597;47.588;9.642;2023-11-19T05:16:47;1.63;;;0.90;;
11086;SDS011;5597;47.588;9.642;2023-11-19T05:19:12;1.13;;;0.93;;
11086;SDS011;5597;47.588;9.642;2023-11-19T05:21:41;0.80;;;0.80;;
11086;SDS011;5597;47.588;9.642;2023-11-19T05:24:10;1.30;;;1.00;;
11086;SDS011;5597;47.588;9.642;2023-11-19T05:26:36;1.13;;;1.03;;
11086;SDS011;5597;47.588;9.642;2023-11-19T05:29:02;0.97;;;0.97;;
11086;SDS011;5597;47.588;9.642;2023-11-19T05:31:29;1.10;;;1.00;;
11086;SDS011;5597;47.588;9.642;2023-11-19T05:33:55;2.37;;;0.93;;
11086;SDS011;5597;47.588;9.642;2023-11-19T05:36:20;0.90;;;0.90;;
11086;SDS011;5597;47.588;9.642;2023-11-19T05:38:46;1.03;;;0.90;;
11086;SDS011;5597;47.588;9.642;2023-11-19T05:41:12;0.73;;;0.73;;
11086;SDS011;5597;47.588;9.642;2023-11-19T05:43:37;1.63;;;1.00;;
11086;SDS011;5597;47.588;9.642;2023-11-19T05:46:05;1.27;;;0.90;;
11086;SDS011;5597;47.588;9.642;2023-11-19T05:48:31;1.27;;;0.90;;
11086;SDS011;5597;47.588;9.642;2023-11-19T05:50:57;3.03;;;1.00;;
11086;SDS011;5597;47.588;9.642;2023-11-19T05:53:22;1.27;;;0.93;;
11086;SDS011;5597;47.588;9.642;2023-11-19T05:55:48;0.80;;;0.80;;
11086;SDS011;5597;47.588;9.642;2023-11-19T05:58:19;1.17;;;0.90;;
11086;SDS011;5597;47.588;9.642;2023-11-19T06:00:54;0.77;;;0.77;;
11086;SDS011;5597;47.588;9.642;2023-11-19T06:03:20;1.03;;;0.97;;
11086;SDS011;5597;47.588;9.642;2023-11-19T06:05:47;1.23;;;0.80;;
11086;SDS011;5597;47.588;9.642;2023-11-19T06:08:13;1.03;;;0.93;;
11086;SDS011;5597;47.588;9.642;2023-11-19T06:10:42;2.90;;;1.10;;
11086;SDS011;5597;47.588;9.642;2023-11-19T06:13:11;1.30;;;1.00;;
11086;SDS011;5597;47.588;9.642;2023-11-19T06:15:36;1.03;;;0.90;;
11086;SDS011;5597;47.588;9.642;2023-11-19T06:18:02;1.37;;;1.10;;
11086;SDS011;5597;47.588;9.642;2023-11-19T06:20:29;1.40;;;1.00;;
11086;SDS011;5597;47.588;9.642;2023-11-19T06:22:55;1.83;;;0.90;;
11086;SDS011;5597;47.588;9.642;2023-11-19T06:25:21;1.33;;;0.80;;
11086;SDS011;5597;47.588;9.642;2023-11-19T06:27:49;0.90;;;0.90;;
11086;SDS011;5597;47.588;9.642;2023-11-19T06:30:14;1.00;;;0.90;;
11086;SDS011;5597;47.588;9.642;2023-11-19T06:32:40;1.27;;;0.97;;
11086;SDS011;5597;47.588;9.642;2023-11-19T06:35:05;1.50;;;1.00;;
11086;SDS011;5597;47.588;9.642;2023-11-19T06:37:31;2.10;;;1.00;;
11086;SDS011;5597;47.588;9.642;2023-11-19T06:39:57;1.23;;;1.00;;
11086;SDS011;5597;47.588;9.642;2023-11-19T06:42:23;1.50;;;1.30;;
11086;SDS011;5597;47.588;9.642;2023-11-19T06:44:48;1.20;;;1.00;;
11086;SDS011;5597;47.588;9.642;2023-11-19T06:47:14;1.20;;;0.90;;
11086;SDS011;5597;47.588;9.642;2023-11-19T06:49:40;2.27;;;1.00;;
11086;SDS011;5597;47.588;9.642;2023-11-19T06:52:08;1.37;;;1.10;;
11086;SDS011;5597;47.588;9.642;2023-11-19T06:54:34;1.20;;;1.10;;
11086;SDS011;5597;47.588;9.642;2023-11-19T06:56:59;1.70;;;1.27;;
11086;SDS011;5597;47.588;9.642;2023-11-19T06:59:25;2.13;;;1.03;;
11086;SDS011;5597;47.588;9.642;2023-11-19T07:01:50;1.10;;;1.00;;
11086;SDS011;5597;47.588;9.642;2023-11-19T07:04:16;1.20;;;1.10;;
11086;SDS011;5597;47.588;9.642;2023-11-19T07:06:41;1.50;;;1.10;;
11086;SDS011;5597;47.588;9.642;2023-11-19T07:09:07;1.33;;;1.10;;
11086;SDS011;5597;47.588;9.642;2023-11-19T07:11:37;1.87;;;0.97;;
11086;SDS011;5597;47.588;9.642;2023-11-19T07:14:04;1.30;;;1.20;;
11086;SDS011;5597;47.588;9.642;2023-11-19T07:16:31;1.17;;;1.07;;
11086;SDS011;5597;47.588;9.642;2023-11-19T07:19:02;1.40;;;1.30;;
11086;SDS011;5597;47.588;9.642;2023-11-19T07:21:28;1.30;;;1.20;;
11086;SDS011;5597;47.588;9.642;2023-11-19T07:23:54;1.20;;;1.00;;
11086;SDS011;5597;47.588;9.642;2023-11-19T07:26:20;1.10;;;1.00;;
11086;SDS011;5597;47.588;9.642;2023-11-19T07:28:46;2.03;;;1.60;;
11086;SDS011;5597;47.588;9.642;2023-11-19T07:31:12;1.47;;;1.30;;
11086;SDS011;5597;47.588;9.642;2023-11-19T07:33:39;1.87;;;1.23;;
11086;SDS011;5597;47.588;9.642;2023-11-19T07:36:04;1.20;;;1.10;;
11086;SDS011;5597;47.588;9.642;2023-11-19T07:38:30;1.03;;;0.93;;
11086;SDS011;5597;47.588;9.642;2023-11-19T07:40:56;2.23;;;1.00;;
11086;SDS011;5597;47.588;9.642;2023-11-19T07:43:22;1.50;;;1.30;;
11086;SDS011;5597;47.588;9.642;2023-11-19T07:45:47;1.30;;;1.10;;
11086;SDS011;5597;47.588;9.642;2023-11-19T07:48:13;1.17;;;1.03;;
11086;SDS011;5597;47.588;9.642;2023-11-19T07:50:39;1.40;;;1.20;;
11086;SDS011;5597;47.588;9.642;2023-11-19T07:53:07;1.20;;;1.10;;
11086;SDS011;5597;47.588;9.642;2023-11-19T07:55:33;1.63;;;1.30;;
11086;SDS011;5597;47.588;9.642;2023-11-19T07:57:59;1.50;;;1.40;;
11086;SDS011;5597;47.588;9.642;2023-11-19T08:00:25;1.37;;;1.27;;
11086;SDS011;5597;47.588;9.642;2023-11-19T08:02:50;1.27;;;1.17;;
11086;SDS011;5597;47.588;9.642;2023-11-19T08:05:16;1.73;;;1.20;;
11086;SDS011;5597;47.588;9.642;2023-11-19T08:07:41;1.37;;;1.27;;
11086;SDS011;5597;47.588;9.642;2023-11-19T08:10:07;1.57;;;1.30;;
11086;SDS011;5597;47.588;9.642;2023-11-19T08:12:35;1.40;;;1.30;;
11086;SDS011;5597;47.588;9.642;2023-11-19T08:15:01;1.37;;;1.20;;
11086;SDS011;5597;47.588;9.642;2023-11-19T08:17:27;1.20;;;1.10;;
11086;SDS011;5597;47.588;9.642;2023-11-19T08:19:53;1.60;;;1.50;;
11086;SDS011;5597;47.588;9.642;2023-11-19T08:22:19;1.73;;;1.40;;
11086;SDS011;5597;47.588;9.642;2023-11-19T08:24:44;1.43;;;1.33;;
11086;SDS011;5597;47.588;9.642;2023-11-19T08:27:10;2.20;;;1.50;;
11086;SDS011;5597;47.588;9.642;2023-11-19T08:29:35;1.60;;;1.30;;
11086;SDS011;5597;47.588;9.642;2023-11-19T08:32:01;1.50;;;1.27;;
11086;SDS011;5597;47.588;9.642;2023-11-19T08:34:28;1.97;;;1.47;;
11086;SDS011;5597;47.588;9.642;2023-11-19T08:36:54;1.27;;;1.17;;
11086;SDS011;5597;47.588;9.642;2023-11-19T08:39:20;1.40;;;1.30;;
11086;SDS011;5597;47.588;9.642;2023-11-19T08:41:46;2.20;;;1.77;;
11086;SDS011;5597;47.588;9.642;2023-11-19T08:44:13;3.17;;;2.37;;
11086;SDS011;5597;47.588;9.642;2023-11-19T08:46:38;2.63;;;2.23;;
11086;SDS011;5597;47.588;9.642;2023-11-19T08:49:10;2.07;;;1.87;;
11086;SDS011;5597;47.588;9.642;2023-11-19T08:51:36;1.70;;;1.60;;
11086;SDS011;5597;47.588;9.642;2023-11-19T08:54:01;1.83;;;1.63;;
11086;SDS011;5597;47.588;9.642;2023-11-19T08:56:28;1.73;;;1.57;;
11086;SDS011;5597;47.588;9.642;2023-11-19T08:58:57;1.83;;;1.73;;
11086;SDS011;5597;47.588;9.642;2023-11-19T09:01:24;1.83;;;1.60;;
11086;SDS011;5597;47.588;9.642;2023-11-19T09:03:50;1.50;;;1.40;;
11086;SDS011;5597;47.588;9.642;2023-11-19T09:06:15;1.70;;;1.60;;
11086;SDS011;5597;47.588;9.642;2023-11-19T09:08:42;1.43;;;1.33;;
11086;SDS011;5597;47.588;9.642;2023-11-19T09:11:07;2.03;;;1.67;;
11086;SDS011;5597;47.588;9.642;2023-11-19T09:13:36;1.40;;;1.30;;
11086;SDS011;5597;47.588;9.642;2023-11-19T09:16:02;2.03;;;1.83;;
11086;SDS011;5597;47.588;9.642;2023-11-19T09:18:31;1.83;;;1.60;;
11086;SDS011;5597;47.588;9.642;2023-11-19T09:20:57;2.13;;;1.77;;
11086;SDS011;5597;47.588;9.642;2023-11-19T09:23:23;1.60;;;1.50;;
11086;SDS011;5597;47.588;9.642;2023-11-19T09:25:50;2.17;;;1.97;;
11086;SDS011;5597;47.588;9.642;2023-11-19T09:28:16;2.83;;;2.00;;
11086;SDS011;5597;47.588;9.642;2023-11-19T09:30:41;2.50;;;2.20;;
11086;SDS011;5597;47.588;9.642;2023-11-19T09:33:07;2.20;;;1.87;;
11086;SDS011;5597;47.588;9.642;2023-11-19T09:35:32;2.23;;;1.83;;
11086;SDS011;5597;47.588;9.642;2023-11-19T09:37:58;2.03;;;1.83;;
11086;SDS011;5597;47.588;9.642;2023-11-19T09:40:24;2.03;;;1.70;;
11086;SDS011;5597;47.588;9.642;2023-11-19T09:42:49;1.80;;;1.70;;
11086;SDS011;5597;47.588;9.642;2023-11-19T09:45:16;2.57;;;1.90;;
11086;SDS011;5597;47.588;9.642;2023-11-19T09:47:46;2.40;;;2.20;;
11086;SDS011;5597;47.588;9.642;2023-11-19T09:50:14;2.20;;;2.10;;
11086;SDS011;5597;47.588;9.642;2023-11-19T09:52:46;1.90;;;1.80;;
11086;SDS011;5597;47.588;9.642;2023-11-19T09:55:12;1.90;;;1.80;;
11086;SDS011;5597;47.588;9.642;2023-11-19T09:57:38;1.80;;;1.70;;
11086;SDS011;5597;47.588;9.642;2023-11-19T10:00:05;1.83;;;1.73;;
11086;SDS011;5597;47.588;9.642;2023-11-19T10:02:32;3.03;;;2.77;;
11086;SDS011;5597;47.588;9.642;2023-11-19T10:05:01;3.00;;;2.80;;
11086;SDS011;5597;47.588;9.642;2023-11-19T10:07:31;2.90;;;2.70;;
11086;SDS011;5597;47.588;9.642;2023-11-19T10:09:58;2.63;;;2.20;;
11086;SDS011;5597;47.588;9.642;2023-11-19T10:12:26;2.47;;;2.27;;
11086;SDS011;5597;47.588;9.642;2023-11-19T10:14:52;2.30;;;2.10;;
11086;SDS011;5597;47.588;9.642;2023-11-19T10:17:33;2.30;;;2.10;;
11086;SDS011;5597;47.588;9.642;2023-11-19T10:19:58;2.60;;;2.17;;
11086;SDS011;5597;47.588;9.642;2023-11-19T10:22:24;2.20;;;2.00;;
11086;SDS011;5597;47.588;9.642;2023-11-19T10:24:51;2.60;;;2.30;;
11086;SDS011;5597;47.588;9.642;2023-11-19T10:27:17;1.90;;;1.70;;
11086;SDS011;5597;47.588;9.642;2023-11-19T10:29:46;2.03;;;1.80;;
11086;SDS011;5597;47.588;9.642;2023-11-19T10:32:13;2.00;;;1.80;;
11086;SDS011;5597;47.588;9.642;2023-11-19T10:34:40;2.03;;;1.70;;
11086;SDS011;5597;47.588;9.642;2023-11-19T10:37:06;2.40;;;2.20;;
11086;SDS011;5597;47.588;9.642;2023-11-19T10:39:54;2.30;;;2.10;;
11086;SDS011;5597;47.588;9.642;2023-11-19T10:42:20;2.20;;;2.00;;
11086;SDS011;5597;47.588;9.642;2023-11-19T10:44:45;2.90;;;2.63;;
11086;SDS011;5597;47.588;9.642;2023-11-19T10:47:12;2.67;;;2.47;;
11086;SDS011;5597;47.588;9.642;2023-11-19T10:49:39;3.37;;;2.53;;
11086;SDS011;5597;47.588;9.642;2023-11-19T10:52:05;3.40;;;3.10;;
11086;SDS011;5597;47.588;9.642;2023-11-19T10:54:34;3.30;;;3.00;;
11086;SDS011;5597;47.588;9.642;2023-11-19T10:56:59;3.60;;;3.20;;
11086;SDS011;5597;47.588;9.642;2023-11-19T10:59:28;3.60;;;3.27;;
11086;SDS011;5597;47.588;9.642;2023-11-19T11:01:57;3.90;;;3.60;;
11086;SDS011;5597;47.588;9.642;2023-11-19T11:04:24;3.47;;;3.17;;
11086;SDS011;5597;47.588;9.642;2023-11-19T11:06:54;2.70;;;2.50;;
11086;SDS011;5597;47.588;9.642;2023-11-19T11:09:21;2.60;;;2.20;;
11086;SDS011;5597;47.588;9.642;2023-11-19T11:11:48;4.60;;;3.23;;
11086;SDS011;5597;47.588;9.642;2023-11-19T11:14:16;3.03;;;2.57;;
11086;SDS011;5597;47.588;9.642;2023-11-19T11:16:46;3.20;;;2.67;;
11086;SDS011;5597;47.588;9.642;2023-11-19T11:19:16;2.63;;;2.43;;
11086;SDS011;5597;47.588;9.642;2023-11-19T11:21:44;2.83;;;2.40;;
11086;SDS011;5597;47.588;9.642;2023-11-19T11:29:42;5.53;;;3.30;;
11086;SDS011;5597;47.588;9.642;2023-11-19T11:32:27;3.57;;;2.90;;
11086;SDS011;5597;47.588;9.642;2023-11-19T11:37:45;3.30;;;3.00;;
11086;SDS011;5597;47.588;9.642;2023-11-19T11:40:16;2.80;;;2.40;;
11086;SDS011;5597;47.588;9.642;2023-11-19T11:42:43;2.20;;;1.97;;
11086;SDS011;5597;47.588;9.642;2023-11-19T11:45:12;2.50;;;1.80;;
11086;SDS011;5597;47.588;9.642;2023-11-19T11:50:11;2.90;;;2.60;;
11086;SDS011;5597;47.588;9.642;2023-11-19T11:55:28;2.50;;;2.30;;
11086;SDS011;5597;47.588;9.642;2023-11-19T11:57:54;2.73;;;2.03;;
11086;SDS011;5597;47.588;9.642;2023-11-19T12:02:54;2.30;;;2.10;;
11086;SDS011;5597;47.588;9.642;2023-11-19T12:05:21;4.13;;;2.17;;
11086;SDS011;5597;47.588;9.642;2023-11-19T12:07:57;2.03;;;1.80;;
11086;SDS011;5597;47.588;9.642;2023-11-19T12:10:26;1.60;;;1.50;;
11086;SDS011;5597;47.588;9.642;2023-11-19T12:12:59;3.53;;;2.70;;
11086;SDS011;5597;47.588;9.642;2023-11-19T12:15:31;3.70;;;3.00;;
11086;SDS011;5597;47.588;9.642;2023-11-19T12:17:57;3.00;;;2.53;;
11086;SDS011;5597;47.588;9.642;2023-11-19T12:20:24;3.10;;;2.60;;
11086;SDS011;5597;47.588;9.642;2023-11-19T12:22:50;3.30;;;2.53;;
11086;SDS011;5597;47.588;9.642;2023-11-19T12:25:17;3.40;;;2.70;;
11086;SDS011;5597;47.588;9.642;2023-11-19T12:27:48;5.60;;;4.00;;
11086;SDS011;5597;47.588;9.642;2023-11-19T12:30:20;3.47;;;2.90;;
11086;SDS011;5597;47.588;9.642;2023-11-19T12:32:47;3.50;;;2.30;;
11086;SDS011;5597;47.588;9.642;2023-11-19T12:35:13;4.83;;;3.20;;
11086;SDS011;5597;47.588;9.642;2023-11-19T12:37:41;6.07;;;3.93;;
11086;SDS011;5597;47.588;9.642;2023-11-19T12:40:14;15.33;;;7.80;;
11086;SDS011;5597;47.588;9.642;2023-11-19T12:42:42;9.40;;;6.70;;
11086;SDS011;5597;47.588;9.642;2023-11-19T12:45:11;9.07;;;5.50;;
11086;SDS011;5597;47.588;9.642;2023-11-19T12:47:38;10.53;;;6.80;;
11086;SDS011;5597;47.588;9.642;2023-11-19T12:50:08;13.10;;;7.20;;
11086;SDS011;5597;47.588;9.642;2023-11-19T12:52:35;11.37;;;6.70;;
11086;SDS011;5597;47.588;9.642;2023-11-19T12:55:02;13.40;;;8.00;;
11086;SDS011;5597;47.588;9.642;2023-11-19T12:57:35;13.70;;;8.40;;
11086;SDS011;5597;47.588;9.642;2023-11-19T13:00:02;14.50;;;8.30;;
11086;SDS011;5597;47.588;9.642;2023-11-19T13:02:44;12.50;;;7.43;;
11086;SDS011;5597;47.588;9.642;2023-11-19T13:08:02;13.13;;;6.80;;
11086;SDS011;5597;47.588;9.642;2023-11-19T13:10:33;14.47;;;7.20;;
11086;SDS011;5597;47.588;9.642;2023-11-19T13:13:15;13.57;;;7.47;;
11086;SDS011;5597;47.588;9.642;2023-11-19T13:15:40;14.80;;;7.10;;
11086;SDS011;5597;47.588;9.642;2023-11-19T13:18:06;11.23;;;6.37;;
11086;SDS011;5597;47.588;9.642;2023-11-19T13:20:32;12.83;;;6.30;;
11086;SDS011;5597;47.588;9.642;2023-11-19T13:22:58;8.47;;;5.37;;
11086;SDS011;5597;47.588;9.642;2023-11-19T13:25:25;6.33;;;3.87;;
11086;SDS011;5597;47.588;9.642;2023-11-19T13:27:52;6.13;;;3.40;;
11086;SDS011;5597;47.588;9.642;2023-11-19T13:30:18;2.97;;;2.50;;
11086;SDS011;5597;47.588;9.642;2023-11-19T13:32:45;3.73;;;2.77;;
11086;SDS011;5597;47.588;9.642;2023-11-19T13:35:11;4.17;;;3.17;;
11086;SDS011;5597;47.588;9.642;2023-11-19T13:37:37;3.27;;;2.77;;
11086;SDS011;5597;47.588;9.642;2023-11-19T13:40:03;3.40;;;2.90;;
11086;SDS011;5597;47.588;9.642;2023-11-19T13:42:30;2.77;;;2.40;;
11086;SDS011;5597;47.588;9.642;2023-11-19T13:44:55;3.20;;;2.70;;
11086;SDS011;5597;47.588;9.642;2023-11-19T13:47:21;3.07;;;2.70;;
11086;SDS011;5597;47.588;9.642;2023-11-19T13:49:47;7.23;;;4.43;;
11086;SDS011;5597;47.588;9.642;2023-11-19T13:52:12;11.33;;;6.83;;
11086;SDS011;5597;47.588;9.642;2023-11-19T13:54:38;8.57;;;5.00;;
11086;SDS011;5597;47.588;9.642;2023-11-19T13:57:03;4.90;;;3.00;;
11086;SDS011;5597;47.588;9.642;2023-11-19T13:59:30;2.90;;;2.17;;
11086;SDS011;5597;47.588;9.642;2023-11-19T14:01:57;2.47;;;2.00;;
11086;SDS011;5597;47.588;9.642;2023-11-19T14:04:23;2.47;;;2.07;;
11086;SDS011;5597;47.588;9.642;2023-11-19T14:06:49;3.13;;;2.10;;
11086;SDS011;5597;47.588;9.642;2023-11-19T14:09:14;2.03;;;1.77;;
11086;SDS011;5597;47.588;9.642;2023-11-19T14:11:40;4.73;;;2.70;;
11086;SDS011;5597;47.588;9.642;2023-11-19T14:14:07;3.40;;;2.60;;
11086;SDS011;5597;47.588;9.642;2023-11-19T14:16:33;4.13;;;2.20;;
11086;SDS011;5597;47.588;9.642;2023-11-19T14:18:59;2.70;;;2.10;;
11086;SDS011;5597;47.588;9.642;2023-11-19T14:21:24;2.67;;;2.23;;
11086;SDS011;5597;47.588;9.642;2023-11-19T14:23:51;2.07;;;1.73;;
11086;SDS011;5597;47.588;9.642;2023-11-19T14:26:17;2.30;;;1.80;;
11086;SDS011;5597;47.588;9.642;2023-11-19T14:28:43;1.70;;;1.53;;
11086;SDS011;5597;47.588;9.642;2023-11-19T14:31:08;2.50;;;1.83;;
11086;SDS011;5597;47.588;9.642;2023-11-19T14:33:34;2.50;;;2.27;;
11086;SDS011;5597;47.588;9.642;2023-11-19T14:36:01;2.87;;;2.60;;
11086;SDS011;5597;47.588;9.642;2023-11-19T14:38:27;2.53;;;2.33;;
11086;SDS011;5597;47.588;9.642;2023-11-19T14:40:52;2.40;;;2.20;;
11086;SDS011;5597;47.588;9.642;2023-11-19T14:43:18;2.50;;;2.10;;
11086;SDS011;5597;47.588;9.642;2023-11-19T14:45:44;3.03;;;2.53;;
11086;SDS011;5597;47.588;9.642;2023-11-19T14:48:09;2.50;;;2.30;;
11086;SDS011;5597;47.588;9.642;2023-11-19T14:50:35;2.43;;;2.00;;
11086;SDS011;5597;47.588;9.642;2023-11-19T14:53:00;2.47;;;2.27;;
11086;SDS011;5597;47.588;9.642;2023-11-19T14:55:27;2.20;;;2.00;;
11086;SDS011;5597;47.588;9.642;2023-11-19T14:57:52;1.90;;;1.70;;
11086;SDS011;5597;47.588;9.642;2023-11-19T15:00:18;1.47;;;1.37;;
11086;SDS011;5597;47.588;9.642;2023-11-19T15:02:44;2.80;;;1.70;;
11086;SDS011;5597;47.588;9.642;2023-11-19T15:05:10;2.23;;;2.03;;
11086;SDS011;5597;47.588;9.642;2023-11-19T15:07:39;2.33;;;2.00;;
11086;SDS011;5597;47.588;9.642;2023-11-19T15:10:07;1.90;;;1.80;;
11086;SDS011;5597;47.588;9.642;2023-11-19T15:12:36;2.30;;;2.10;;
11086;SDS011;5597;47.588;9.642;2023-11-19T15:15:10;2.80;;;2.50;;
11086;SDS011;5597;47.588;9.642;2023-11-19T15:17:38;2.70;;;2.30;;
11086;SDS011;5597;47.588;9.642;2023-11-19T15:20:04;3.10;;;2.53;;